sensor_id;sensor_type;location;lat;lon;timestamp;pressure;altitude;pressure_sealevel;temperature;humidity
59419;BME280;45224;50.904;6.038;2023-02-27T00:00:09;100842.13;;;-0.96;73.78
59419;BME280;45224;50.904;6.038;2023-02-27T00:01:44;100848.19;;;-0.94;73.91
59419;BME280;45224;50.904;6.038;2023-02-27T00:03:14;100852.97;;;-1.12;74.70
59419;BME280;45224;50.904;6.038;2023-02-27T00:04:45;100844.78;;;-1.08;74.31
59419;BME280;45224;50.904;6.038;2023-02-27T00:06:16;100846.94;;;-1.14;74.74
59419;BME280;45224;50.904;6.038;2023-02-27T00:07:49;100841.44;;;-1.07;74.54
59419;BME280;45224;50.904;6.038;2023-02-27T00:09:20;100851.88;;;-1.02;74.57
59419;BME280;45224;50.904;6.038;2023-02-27T00:10:51;100843.78;;;-1.10;75.07
59419;BME280;45224;50.904;6.038;2023-02-27T00:12:21;100836.88;;;-1.26;75.61
59419;BME280;45224;50.904;6.038;2023-02-27T00:13:52;100850.63;;;-1.22;75.50
59419;BME280;45224;50.904;6.038;2023-02-27T00:15:23;100848.19;;;-1.21;75.59
59419;BME280;45224;50.904;6.038;2023-02-27T00:16:53;100841.66;;;-1.31;75.97
59419;BME280;45224;50.904;6.038;2023-02-27T00:18:24;100848.88;;;-1.37;76.80
59419;BME280;45224;50.904;6.038;2023-02-27T00:19:54;100845.34;;;-1.25;76.33
59419;BME280;45224;50.904;6.038;2023-02-27T00:21:25;100844.97;;;-1.32;76.37
59419;BME280;45224;50.904;6.038;2023-02-27T00:22:56;100855.22;;;-1.30;76.84
59419;BME280;45224;50.904;6.038;2023-02-27T00:24:26;100856.69;;;-1.34;77.41
59419;BME280;45224;50.904;6.038;2023-02-27T00:25:57;100851.19;;;-1.40;77.40
59419;BME280;45224;50.904;6.038;2023-02-27T00:27:30;100841.50;;;-1.45;77.45
59419;BME280;45224;50.904;6.038;2023-02-27T00:29:01;100855.66;;;-1.49;78.72
59419;BME280;45224;50.904;6.038;2023-02-27T00:30:32;100845.22;;;-1.54;78.59
59419;BME280;45224;50.904;6.038;2023-02-27T00:32:03;100853.13;;;-1.49;78.83
59419;BME280;45224;50.904;6.038;2023-02-27T00:33:34;100847.09;;;-1.51;79.12
59419;BME280;45224;50.904;6.038;2023-02-27T00:35:06;100845.72;;;-1.59;79.53
59419;BME280;45224;50.904;6.038;2023-02-27T00:36:37;100846.56;;;-1.59;79.66
59419;BME280;45224;50.904;6.038;2023-02-27T00:38:07;100853.94;;;-1.50;79.54
59419;BME280;45224;50.904;6.038;2023-02-27T00:39:38;100850.59;;;-1.49;79.15
59419;BME280;45224;50.904;6.038;2023-02-27T00:41:08;100849.31;;;-1.56;79.47
59419;BME280;45224;50.904;6.038;2023-02-27T00:42:39;100843.38;;;-1.56;80.09
59419;BME280;45224;50.904;6.038;2023-02-27T00:44:11;100851.53;;;-1.60;79.80
59419;BME280;45224;50.904;6.038;2023-02-27T00:45:41;100861.03;;;-1.58;79.67
59419;BME280;45224;50.904;6.038;2023-02-27T00:47:12;100855.25;;;-1.55;80.05
59419;BME280;45224;50.904;6.038;2023-02-27T00:48:43;100837.69;;;-1.66;79.75
59419;BME280;45224;50.904;6.038;2023-02-27T00:50:13;100857.47;;;-1.60;79.86
59419;BME280;45224;50.904;6.038;2023-02-27T00:51:45;100855.47;;;-1.52;79.61
59419;BME280;45224;50.904;6.038;2023-02-27T00:53:16;100849.41;;;-1.68;80.53
59419;BME280;45224;50.904;6.038;2023-02-27T00:54:46;100852.25;;;-1.63;80.91
59419;BME280;45224;50.904;6.038;2023-02-27T00:56:17;100848.00;;;-1.76;80.81
59419;BME280;45224;50.904;6.038;2023-02-27T00:57:48;100854.25;;;-1.71;81.24
59419;BME280;45224;50.904;6.038;2023-02-27T00:59:19;100854.25;;;-1.71;81.16
59419;BME280;45224;50.904;6.038;2023-02-27T01:00:49;100858.53;;;-1.70;80.76
59419;BME280;45224;50.904;6.038;2023-02-27T01:02:20;100855.22;;;-1.69;80.59
59419;BME280;45224;50.904;6.038;2023-02-27T01:03:50;100852.50;;;-1.72;80.94
59419;BME280;45224;50.904;6.038;2023-02-27T01:05:21;100860.09;;;-1.72;81.62
59419;BME280;45224;50.904;6.038;2023-02-27T01:06:52;100848.97;;;-1.74;81.64
59419;BME280;45224;50.904;6.038;2023-02-27T01:08:23;100853.09;;;-1.76;81.53
59419;BME280;45224;50.904;6.038;2023-02-27T01:09:53;100860.91;;;-1.73;81.39
59419;BME280;45224;50.904;6.038;2023-02-27T01:11:24;100850.75;;;-1.73;81.91
59419;BME280;45224;50.904;6.038;2023-02-27T01:12:55;100854.63;;;-1.78;82.04
59419;BME280;45224;50.904;6.038;2023-02-27T01:14:26;100853.09;;;-1.76;81.58
59419;BME280;45224;50.904;6.038;2023-02-27T01:15:56;100842.03;;;-1.76;81.80
59419;BME280;45224;50.904;6.038;2023-02-27T01:17:27;100853.66;;;-1.80;81.97
59419;BME280;45224;50.904;6.038;2023-02-27T01:18:57;100853.44;;;-1.83;82.18
59419;BME280;45224;50.904;6.038;2023-02-27T01:20:28;100856.56;;;-1.87;82.19
59419;BME280;45224;50.904;6.038;2023-02-27T01:21:59;100851.69;;;-1.84;82.11
59419;BME280;45224;50.904;6.038;2023-02-27T01:23:29;100847.09;;;-1.90;82.28
59419;BME280;45224;50.904;6.038;2023-02-27T01:25:00;100852.44;;;-1.98;82.50
59419;BME280;45224;50.904;6.038;2023-02-27T01:26:30;100850.09;;;-1.95;82.33
59419;BME280;45224;50.904;6.038;2023-02-27T01:28:01;100850.09;;;-1.95;82.86
59419;BME280;45224;50.904;6.038;2023-02-27T01:29:32;100849.91;;;-1.98;82.40
59419;BME280;45224;50.904;6.038;2023-02-27T01:31:02;100842.50;;;-1.95;82.80
59419;BME280;45224;50.904;6.038;2023-02-27T01:32:35;100842.50;;;-1.95;82.29
59419;BME280;45224;50.904;6.038;2023-02-27T01:34:07;100847.56;;;-1.95;82.58
59419;BME280;45224;50.904;6.038;2023-02-27T01:35:38;100843.69;;;-1.90;82.08
59419;BME280;45224;50.904;6.038;2023-02-27T01:37:09;100839.59;;;-1.88;82.51
59419;BME280;45224;50.904;6.038;2023-02-27T01:38:39;100829.81;;;-1.95;82.32
59419;BME280;45224;50.904;6.038;2023-02-27T01:40:10;100837.22;;;-1.98;82.19
59419;BME280;45224;50.904;6.038;2023-02-27T01:41:41;100829.31;;;-2.03;83.12
59419;BME280;45224;50.904;6.038;2023-02-27T01:43:15;100837.44;;;-1.95;83.23
59419;BME280;45224;50.904;6.038;2023-02-27T01:46:39;100814.97;;;-2.03;82.77
59419;BME280;45224;50.904;6.038;2023-02-27T01:48:15;100836.31;;;-1.99;83.22
59419;BME280;45224;50.904;6.038;2023-02-27T01:49:47;100830.38;;;-1.99;83.39
59419;BME280;45224;50.904;6.038;2023-02-27T01:51:19;100833.69;;;-2.00;83.26
59419;BME280;45224;50.904;6.038;2023-02-27T01:52:54;100833.69;;;-2.00;83.24
59419;BME280;45224;50.904;6.038;2023-02-27T01:54:27;100836.41;;;-1.97;83.14
59419;BME280;45224;50.904;6.038;2023-02-27T01:56:06;100829.72;;;-1.97;83.27
59419;BME280;45224;50.904;6.038;2023-02-27T01:57:40;100833.22;;;-1.95;83.39
59419;BME280;45224;50.904;6.038;2023-02-27T01:59:14;100840.53;;;-1.99;83.33
59419;BME280;45224;50.904;6.038;2023-02-27T02:00:46;100836.41;;;-1.97;83.64
59419;BME280;45224;50.904;6.038;2023-02-27T02:02:21;100840.94;;;-1.93;82.87
59419;BME280;45224;50.904;6.038;2023-02-27T02:04:10;100834.31;;;-1.91;83.12
59419;BME280;45224;50.904;6.038;2023-02-27T02:05:43;100840.63;;;-1.98;82.91
59419;BME280;45224;50.904;6.038;2023-02-27T02:07:17;100843.56;;;-1.92;83.77
59419;BME280;45224;50.904;6.038;2023-02-27T02:08:49;100839.34;;;-2.05;83.85
59419;BME280;45224;50.904;6.038;2023-02-27T02:10:23;100843.44;;;-2.07;83.88
59419;BME280;45224;50.904;6.038;2023-02-27T02:11:55;100835.13;;;-2.04;84.71
59419;BME280;45224;50.904;6.038;2023-02-27T02:13:27;100835.25;;;-2.03;84.41
59419;BME280;45224;50.904;6.038;2023-02-27T02:14:57;100830.66;;;-2.08;84.58
59419;BME280;45224;50.904;6.038;2023-02-27T02:16:33;100838.25;;;-2.08;84.99
59419;BME280;45224;50.904;6.038;2023-02-27T02:18:25;100828.94;;;-2.21;85.29
59419;BME280;45224;50.904;6.038;2023-02-27T02:20:31;100830.47;;;-2.23;85.85
59419;BME280;45224;50.904;6.038;2023-02-27T02:22:45;100838.88;;;-2.24;86.36
59419;BME280;45224;50.904;6.038;2023-02-27T02:28:19;100837.22;;;-2.24;86.16
59419;BME280;45224;50.904;6.038;2023-02-27T02:30:12;100830.69;;;-2.20;85.94
59419;BME280;45224;50.904;6.038;2023-02-27T02:43:30;100848.81;;;-2.39;87.90
59419;BME280;45224;50.904;6.038;2023-02-27T02:48:46;100841.09;;;-2.29;87.82
59419;BME280;45224;50.904;6.038;2023-02-27T02:50:49;100821.53;;;-2.43;87.72
59419;BME280;45224;50.904;6.038;2023-02-27T02:52:45;100847.06;;;-2.40;87.80
59419;BME280;45224;50.904;6.038;2023-02-27T02:54:39;100843.50;;;-2.30;87.44
59419;BME280;45224;50.904;6.038;2023-02-27T02:56:24;100838.59;;;-2.41;88.01
59419;BME280;45224;50.904;6.038;2023-02-27T02:59:32;100851.28;;;-2.41;88.25
59419;BME280;45224;50.904;6.038;2023-02-27T03:01:16;100851.44;;;-2.38;88.65
59419;BME280;45224;50.904;6.038;2023-02-27T03:02:52;100849.50;;;-2.42;88.05
59419;BME280;45224;50.904;6.038;2023-02-27T03:04:40;100851.06;;;-2.44;87.96
59419;BME280;45224;50.904;6.038;2023-02-27T03:06:28;100844.75;;;-2.49;88.27
59419;BME280;45224;50.904;6.038;2023-02-27T03:08:04;100845.78;;;-2.47;88.95
59419;BME280;45224;50.904;6.038;2023-02-27T03:09:40;100845.34;;;-2.53;88.62
59419;BME280;45224;50.904;6.038;2023-02-27T03:11:12;100850.25;;;-2.43;89.21
59419;BME280;45224;50.904;6.038;2023-02-27T03:12:55;100847.66;;;-2.56;89.03
59419;BME280;45224;50.904;6.038;2023-02-27T03:14:45;100846.69;;;-2.58;88.77
59419;BME280;45224;50.904;6.038;2023-02-27T03:18:00;100857.91;;;-2.54;89.10
59419;BME280;45224;50.904;6.038;2023-02-27T03:19:42;100860.75;;;-2.50;88.74
59419;BME280;45224;50.904;6.038;2023-02-27T03:21:22;100863.94;;;-2.52;88.92
59419;BME280;45224;50.904;6.038;2023-02-27T03:22:58;100858.91;;;-2.64;89.34
59419;BME280;45224;50.904;6.038;2023-02-27T03:26:05;100861.09;;;-2.57;90.04
59419;BME280;45224;50.904;6.038;2023-02-27T03:27:40;100858.88;;;-2.52;89.39
59419;BME280;45224;50.904;6.038;2023-02-27T03:29:19;100854.59;;;-2.53;89.45
59419;BME280;45224;50.904;6.038;2023-02-27T03:31:03;100860.97;;;-2.59;90.07
59419;BME280;45224;50.904;6.038;2023-02-27T03:32:59;100858.69;;;-2.67;90.28
59419;BME280;45224;50.904;6.038;2023-02-27T03:34:35;100862.09;;;-2.55;89.84
59419;BME280;45224;50.904;6.038;2023-02-27T03:36:17;100865.38;;;-2.56;89.91
59419;BME280;45224;50.904;6.038;2023-02-27T03:38:05;100862.63;;;-2.59;89.52
59419;BME280;45224;50.904;6.038;2023-02-27T03:39:51;100868.47;;;-2.60;90.19
59419;BME280;45224;50.904;6.038;2023-02-27T03:41:35;100880.78;;;-2.53;89.58
59419;BME280;45224;50.904;6.038;2023-02-27T03:43:50;100881.66;;;-2.52;89.80
59419;BME280;45224;50.904;6.038;2023-02-27T03:45:32;100880.66;;;-2.43;89.43
59419;BME280;45224;50.904;6.038;2023-02-27T03:47:06;100878.81;;;-2.57;89.88
59419;BME280;45224;50.904;6.038;2023-02-27T03:48:37;100878.47;;;-2.50;89.16
59419;BME280;45224;50.904;6.038;2023-02-27T03:50:14;100888.06;;;-2.58;89.86
59419;BME280;45224;50.904;6.038;2023-02-27T03:51:45;100881.13;;;-2.60;90.56
59419;BME280;45224;50.904;6.038;2023-02-27T03:53:24;100885.22;;;-2.62;90.15
59419;BME280;45224;50.904;6.038;2023-02-27T03:55:07;100887.63;;;-2.52;89.61
59419;BME280;45224;50.904;6.038;2023-02-27T03:56:46;100891.91;;;-2.51;89.68
59419;BME280;45224;50.904;6.038;2023-02-27T03:58:19;100887.19;;;-2.58;90.29
59419;BME280;45224;50.904;6.038;2023-02-27T03:59:50;100890.50;;;-2.59;89.56
59419;BME280;45224;50.904;6.038;2023-02-27T04:01:21;100892.88;;;-2.49;90.04
59419;BME280;45224;50.904;6.038;2023-02-27T04:02:53;100895.06;;;-2.30;88.63
59419;BME280;45224;50.904;6.038;2023-02-27T04:04:30;100891.50;;;-2.20;87.50
59419;BME280;45224;50.904;6.038;2023-02-27T04:06:23;100896.00;;;-2.16;87.09
59419;BME280;45224;50.904;6.038;2023-02-27T04:08:20;100889.91;;;-2.06;86.56
59419;BME280;45224;50.904;6.038;2023-02-27T04:23:56;100898.34;;;-2.19;86.42
59419;BME280;45224;50.904;6.038;2023-02-27T04:25:38;100896.56;;;-2.20;86.85
59419;BME280;45224;50.904;6.038;2023-02-27T04:28:57;100893.72;;;-2.25;86.96
59419;BME280;45224;50.904;6.038;2023-02-27T04:30:40;100897.03;;;-2.26;86.65
59419;BME280;45224;50.904;6.038;2023-02-27T04:32:28;100893.00;;;-2.35;87.40
59419;BME280;45224;50.904;6.038;2023-02-27T04:34:06;100897.84;;;-2.39;87.55
59419;BME280;45224;50.904;6.038;2023-02-27T04:37:23;100900.91;;;-2.43;88.04
59419;BME280;45224;50.904;6.038;2023-02-27T04:39:08;100898.06;;;-2.47;88.63
59419;BME280;45224;50.904;6.038;2023-02-27T04:40:49;100897.75;;;-2.52;88.75
59419;BME280;45224;50.904;6.038;2023-02-27T04:42:26;100894.56;;;-2.61;89.02
59419;BME280;45224;50.904;6.038;2023-02-27T04:43:59;100898.84;;;-2.60;89.85
59419;BME280;45224;50.904;6.038;2023-02-27T04:45:32;100895.34;;;-2.62;89.73
59419;BME280;45224;50.904;6.038;2023-02-27T04:47:06;100902.81;;;-2.64;89.22
59419;BME280;45224;50.904;6.038;2023-02-27T04:48:47;100900.19;;;-2.77;90.17
59419;BME280;45224;50.904;6.038;2023-02-27T04:50:37;100904.72;;;-2.85;90.71
59419;BME280;45224;50.904;6.038;2023-02-27T04:52:13;100904.03;;;-2.70;90.60
59419;BME280;45224;50.904;6.038;2023-02-27T04:53:50;100898.66;;;-2.75;91.10
59419;BME280;45224;50.904;6.038;2023-02-27T04:55:26;100902.63;;;-2.79;90.88
59419;BME280;45224;50.904;6.038;2023-02-27T04:57:02;100903.28;;;-2.81;90.51
59419;BME280;45224;50.904;6.038;2023-02-27T04:58:37;100907.03;;;-2.76;91.59
59419;BME280;45224;50.904;6.038;2023-02-27T05:00:10;100908.66;;;-2.77;90.63
59419;BME280;45224;50.904;6.038;2023-02-27T05:01:48;100912.97;;;-2.76;91.06
59419;BME280;45224;50.904;6.038;2023-02-27T05:03:25;100909.88;;;-2.71;90.69
59419;BME280;45224;50.904;6.038;2023-02-27T05:05:00;100917.25;;;-2.75;90.74
59419;BME280;45224;50.904;6.038;2023-02-27T05:06:35;100918.78;;;-2.77;91.53
59419;BME280;45224;50.904;6.038;2023-02-27T05:08:12;100916.72;;;-2.82;91.44
59419;BME280;45224;50.904;6.038;2023-02-27T05:09:53;100914.72;;;-2.86;91.78
59419;BME280;45224;50.904;6.038;2023-02-27T05:11:43;100917.03;;;-3.01;92.04
59419;BME280;45224;50.904;6.038;2023-02-27T05:13:32;100915.59;;;-2.86;92.35
59419;BME280;45224;50.904;6.038;2023-02-27T05:15:11;100918.47;;;-2.93;92.86
59419;BME280;45224;50.904;6.038;2023-02-27T05:16:49;100920.00;;;-2.95;93.22
59419;BME280;45224;50.904;6.038;2023-02-27T05:18:22;100917.47;;;-2.95;93.09
59419;BME280;45224;50.904;6.038;2023-02-27T05:19:52;100922.44;;;-2.97;92.54
59419;BME280;45224;50.904;6.038;2023-02-27T05:21:30;100924.50;;;-2.91;92.10
59419;BME280;45224;50.904;6.038;2023-02-27T05:23:35;100917.59;;;-2.94;92.19
59419;BME280;45224;50.904;6.038;2023-02-27T05:30:27;100931.34;;;-3.02;93.63
59419;BME280;45224;50.904;6.038;2023-02-27T05:32:33;100926.19;;;-3.03;94.02
59419;BME280;45224;50.904;6.038;2023-02-27T05:34:16;100927.03;;;-2.91;93.45
59419;BME280;45224;50.904;6.038;2023-02-27T05:37:50;100928.81;;;-3.02;93.59
59419;BME280;45224;50.904;6.038;2023-02-27T05:39:26;100924.84;;;-2.98;93.54
59419;BME280;45224;50.904;6.038;2023-02-27T05:41:04;100924.19;;;-3.07;93.66
59419;BME280;45224;50.904;6.038;2023-02-27T05:42:40;100927.84;;;-2.92;93.29
59419;BME280;45224;50.904;6.038;2023-02-27T05:44:18;100928.16;;;-2.87;92.64
59419;BME280;45224;50.904;6.038;2023-02-27T05:45:55;100928.38;;;-2.96;92.55
59419;BME280;45224;50.904;6.038;2023-02-27T05:47:30;100926.94;;;-2.92;92.87
59419;BME280;45224;50.904;6.038;2023-02-27T05:49:24;100935.84;;;-2.98;93.01
59419;BME280;45224;50.904;6.038;2023-02-27T05:50:57;100939.81;;;-3.01;93.41
59419;BME280;45224;50.904;6.038;2023-02-27T05:52:29;100928.13;;;-2.99;93.74
59419;BME280;45224;50.904;6.038;2023-02-27T05:54:06;100937.38;;;-2.88;92.85
59419;BME280;45224;50.904;6.038;2023-02-27T05:57:21;100937.59;;;-2.73;92.07
59419;BME280;45224;50.904;6.038;2023-02-27T05:58:56;100935.63;;;-2.65;91.64
59419;BME280;45224;50.904;6.038;2023-02-27T06:00:59;100951.03;;;-2.62;90.93
59419;BME280;45224;50.904;6.038;2023-02-27T06:02:30;100942.34;;;-2.54;90.21
59419;BME280;45224;50.904;6.038;2023-02-27T06:04:01;100943.09;;;-2.43;89.69
59419;BME280;45224;50.904;6.038;2023-02-27T06:05:32;100940.22;;;-2.36;89.22
59419;BME280;45224;50.904;6.038;2023-02-27T06:07:02;100945.59;;;-2.31;89.05
59419;BME280;45224;50.904;6.038;2023-02-27T06:08:36;100958.94;;;-2.22;88.15
59419;BME280;45224;50.904;6.038;2023-02-27T06:10:07;100954.28;;;-2.16;88.33
59419;BME280;45224;50.904;6.038;2023-02-27T06:11:38;100951.41;;;-2.09;86.92
59419;BME280;45224;50.904;6.038;2023-02-27T06:13:08;100952.69;;;-2.02;86.54
59419;BME280;45224;50.904;6.038;2023-02-27T06:14:39;100956.13;;;-2.02;86.27
59419;BME280;45224;50.904;6.038;2023-02-27T06:16:11;100964.72;;;-1.99;86.43
59419;BME280;45224;50.904;6.038;2023-02-27T06:17:42;100961.19;;;-2.02;86.20
59419;BME280;45224;50.904;6.038;2023-02-27T06:19:13;100950.41;;;-2.11;86.14
59419;BME280;45224;50.904;6.038;2023-02-27T06:20:44;100961.09;;;-2.03;85.94
59419;BME280;45224;50.904;6.038;2023-02-27T06:22:15;100956.25;;;-2.12;86.01
59419;BME280;45224;50.904;6.038;2023-02-27T06:23:46;100966.91;;;-2.04;85.97
59419;BME280;45224;50.904;6.038;2023-02-27T06:25:16;100958.44;;;-2.05;85.83
59419;BME280;45224;50.904;6.038;2023-02-27T06:26:47;100972.88;;;-2.04;85.31
59419;BME280;45224;50.904;6.038;2023-02-27T06:28:17;100969.72;;;-2.25;86.39
59419;BME280;45224;50.904;6.038;2023-02-27T06:29:48;100969.31;;;-2.31;87.57
59419;BME280;45224;50.904;6.038;2023-02-27T06:31:18;100966.34;;;-2.37;88.25
59419;BME280;45224;50.904;6.038;2023-02-27T06:32:49;100971.38;;;-2.25;87.57
59419;BME280;45224;50.904;6.038;2023-02-27T06:34:19;100962.13;;;-2.36;87.33
59419;BME280;45224;50.904;6.038;2023-02-27T06:35:50;100975.34;;;-2.29;87.37
59419;BME280;45224;50.904;6.038;2023-02-27T06:37:21;100973.91;;;-2.25;87.94
59419;BME280;45224;50.904;6.038;2023-02-27T06:38:52;100972.81;;;-2.29;87.74
59419;BME280;45224;50.904;6.038;2023-02-27T06:40:23;100977.03;;;-2.29;87.92
59419;BME280;45224;50.904;6.038;2023-02-27T06:41:54;100977.19;;;-2.26;87.51
59419;BME280;45224;50.904;6.038;2023-02-27T06:43:24;100978.72;;;-2.16;87.17
59419;BME280;45224;50.904;6.038;2023-02-27T06:44:55;100982.16;;;-2.16;87.37
59419;BME280;45224;50.904;6.038;2023-02-27T06:46:25;100974.25;;;-2.32;87.97
59419;BME280;45224;50.904;6.038;2023-02-27T06:47:56;100977.75;;;-2.18;87.55
59419;BME280;45224;50.904;6.038;2023-02-27T06:49:26;100976.31;;;-2.15;87.09
59419;BME280;45224;50.904;6.038;2023-02-27T06:50:57;100985.56;;;-2.15;87.21
59419;BME280;45224;50.904;6.038;2023-02-27T06:52:28;100993.50;;;-2.11;87.11
59419;BME280;45224;50.904;6.038;2023-02-27T06:53:59;100976.53;;;-2.12;86.47
59419;BME280;45224;50.904;6.038;2023-02-27T06:55:29;100985.91;;;-2.11;86.72
59419;BME280;45224;50.904;6.038;2023-02-27T06:57:00;100990.63;;;-2.15;87.28
59419;BME280;45224;50.904;6.038;2023-02-27T06:58:30;100985.91;;;-2.11;87.23
59419;BME280;45224;50.904;6.038;2023-02-27T07:00:02;100993.75;;;-2.19;87.51
59419;BME280;45224;50.904;6.038;2023-02-27T07:01:33;100989.53;;;-2.19;88.02
59419;BME280;45224;50.904;6.038;2023-02-27T07:03:03;100996.56;;;-2.15;88.28
59419;BME280;45224;50.904;6.038;2023-02-27T07:04:34;101008.69;;;-2.11;88.60
59419;BME280;45224;50.904;6.038;2023-02-27T07:06:05;101001.84;;;-2.00;88.33
59419;BME280;45224;50.904;6.038;2023-02-27T07:07:35;100999.66;;;-1.95;87.74
59419;BME280;45224;50.904;6.038;2023-02-27T07:09:06;101007.88;;;-1.86;87.79
59419;BME280;45224;50.904;6.038;2023-02-27T07:10:37;101004.22;;;-1.78;87.11
59419;BME280;45224;50.904;6.038;2023-02-27T07:12:09;101001.78;;;-1.76;86.65
59419;BME280;45224;50.904;6.038;2023-02-27T07:13:39;101002.00;;;-1.73;86.81
59419;BME280;45224;50.904;6.038;2023-02-27T07:15:10;101010.78;;;-1.68;86.67
59419;BME280;45224;50.904;6.038;2023-02-27T07:16:41;101018.47;;;-1.55;86.59
59419;BME280;45224;50.904;6.038;2023-02-27T07:18:12;101026.97;;;-1.54;85.70
59419;BME280;45224;50.904;6.038;2023-02-27T07:19:42;101015.94;;;-1.30;86.29
59419;BME280;45224;50.904;6.038;2023-02-27T07:21:13;101020.13;;;-1.30;84.95
59419;BME280;45224;50.904;6.038;2023-02-27T07:22:44;101013.03;;;-1.22;85.10
59419;BME280;45224;50.904;6.038;2023-02-27T07:24:15;101013.59;;;-1.01;84.74
59419;BME280;45224;50.904;6.038;2023-02-27T07:25:46;101017.00;;;-0.87;83.59
59419;BME280;45224;50.904;6.038;2023-02-27T07:27:17;101009.03;;;-0.80;83.17
59419;BME280;45224;50.904;6.038;2023-02-27T07:28:47;101011.56;;;-0.94;82.75
59419;BME280;45224;50.904;6.038;2023-02-27T07:30:18;101017.97;;;-0.99;82.86
59419;BME280;45224;50.904;6.038;2023-02-27T07:31:49;101020.75;;;-0.82;83.30
59419;BME280;45224;50.904;6.038;2023-02-27T07:33:19;101010.22;;;-0.62;82.30
59419;BME280;45224;50.904;6.038;2023-02-27T07:34:50;101031.69;;;-0.83;81.60
59419;BME280;45224;50.904;6.038;2023-02-27T07:36:20;101023.47;;;-0.79;82.70
59419;BME280;45224;50.904;6.038;2023-02-27T07:37:51;101026.78;;;-0.94;82.31
59419;BME280;45224;50.904;6.038;2023-02-27T07:39:22;101021.31;;;-1.00;82.73
59419;BME280;45224;50.904;6.038;2023-02-27T07:40:52;101026.78;;;-0.94;83.06
59419;BME280;45224;50.904;6.038;2023-02-27T07:42:23;101033.28;;;-0.72;82.52
59419;BME280;45224;50.904;6.038;2023-02-27T07:43:53;101014.22;;;-0.92;82.46
59419;BME280;45224;50.904;6.038;2023-02-27T07:45:24;101032.63;;;-0.95;82.52
59419;BME280;45224;50.904;6.038;2023-02-27T07:46:55;101033.41;;;-0.96;83.13
59419;BME280;45224;50.904;6.038;2023-02-27T07:48:25;101033.81;;;-0.89;82.16
59419;BME280;45224;50.904;6.038;2023-02-27T07:49:56;101035.91;;;-0.70;82.41
59419;BME280;45224;50.904;6.038;2023-02-27T07:51:27;101037.28;;;-0.62;81.76
59419;BME280;45224;50.904;6.038;2023-02-27T07:52:58;101032.47;;;-0.84;81.44
59419;BME280;45224;50.904;6.038;2023-02-27T07:54:28;101037.38;;;-0.74;81.87
59419;BME280;45224;50.904;6.038;2023-02-27T07:55:59;101038.75;;;-0.52;81.44
59419;BME280;45224;50.904;6.038;2023-02-27T07:57:29;101033.09;;;-0.35;80.65
59419;BME280;45224;50.904;6.038;2023-02-27T07:59:00;101034.38;;;-0.28;80.24
59419;BME280;45224;50.904;6.038;2023-02-27T08:00:31;101039.34;;;-0.03;79.30
59419;BME280;45224;50.904;6.038;2023-02-27T08:02:02;101043.75;;;-0.27;79.11
59419;BME280;45224;50.904;6.038;2023-02-27T08:03:32;101044.63;;;0.00;78.66
59419;BME280;45224;50.904;6.038;2023-02-27T08:05:04;101042.63;;;0.23;77.78
59419;BME280;45224;50.904;6.038;2023-02-27T08:06:34;101042.84;;;-0.01;77.51
59419;BME280;45224;50.904;6.038;2023-02-27T08:08:05;101035.94;;;0.38;78.26
59419;BME280;45224;50.904;6.038;2023-02-27T08:09:35;101038.41;;;0.51;76.41
59419;BME280;45224;50.904;6.038;2023-02-27T08:11:06;101041.88;;;0.52;76.49
59419;BME280;45224;50.904;6.038;2023-02-27T08:12:37;101044.06;;;0.61;75.29
59419;BME280;45224;50.904;6.038;2023-02-27T08:14:08;101041.28;;;0.71;75.60
59419;BME280;45224;50.904;6.038;2023-02-27T08:15:38;101041.63;;;0.90;74.76
59419;BME280;45224;50.904;6.038;2023-02-27T08:17:09;101041.19;;;0.69;75.06
59419;BME280;45224;50.904;6.038;2023-02-27T08:18:40;101049.25;;;0.21;75.31
59419;BME280;45224;50.904;6.038;2023-02-27T08:20:10;101050.00;;;0.46;75.11
59419;BME280;45224;50.904;6.038;2023-02-27T08:21:42;101046.72;;;0.34;75.43
59419;BME280;45224;50.904;6.038;2023-02-27T08:23:13;101047.00;;;0.67;75.61
59419;BME280;45224;50.904;6.038;2023-02-27T08:24:44;101043.66;;;0.68;74.78
59419;BME280;45224;50.904;6.038;2023-02-27T08:26:15;101052.97;;;0.39;75.00
59419;BME280;45224;50.904;6.038;2023-02-27T08:27:45;101055.47;;;0.52;74.38
59419;BME280;45224;50.904;6.038;2023-02-27T08:29:16;101048.19;;;0.59;74.25
59419;BME280;45224;50.904;6.038;2023-02-27T08:30:47;101055.03;;;0.60;74.51
59419;BME280;45224;50.904;6.038;2023-02-27T08:32:18;101054.97;;;0.45;73.86
59419;BME280;45224;50.904;6.038;2023-02-27T08:33:48;101044.91;;;0.75;74.07
59419;BME280;45224;50.904;6.038;2023-02-27T08:35:19;101049.25;;;1.05;72.76
59419;BME280;45224;50.904;6.038;2023-02-27T08:36:50;101042.34;;;1.33;72.04
59419;BME280;45224;50.904;6.038;2023-02-27T08:38:21;101050.41;;;1.55;71.04
59419;BME280;45224;50.904;6.038;2023-02-27T08:39:51;101060.94;;;1.61;70.84
59419;BME280;45224;50.904;6.038;2023-02-27T08:41:22;101058.81;;;1.69;70.36
59419;BME280;45224;50.904;6.038;2023-02-27T08:42:52;101052.59;;;2.10;69.75
59419;BME280;45224;50.904;6.038;2023-02-27T08:44:23;101059.09;;;2.69;67.75
59419;BME280;45224;50.904;6.038;2023-02-27T08:45:53;101055.91;;;2.90;65.59
59419;BME280;45224;50.904;6.038;2023-02-27T08:47:24;101051.44;;;2.69;65.44
59419;BME280;45224;50.904;6.038;2023-02-27T08:48:54;101051.81;;;3.10;63.25
59419;BME280;45224;50.904;6.038;2023-02-27T08:50:25;101050.03;;;3.25;64.25
59419;BME280;45224;50.904;6.038;2023-02-27T08:51:55;101052.44;;;3.93;63.51
59419;BME280;45224;50.904;6.038;2023-02-27T08:53:26;101052.91;;;4.22;61.71
59419;BME280;45224;50.904;6.038;2023-02-27T08:54:57;101052.38;;;4.48;61.16
59419;BME280;45224;50.904;6.038;2023-02-27T08:56:28;101046.53;;;4.70;59.21
59419;BME280;45224;50.904;6.038;2023-02-27T08:57:58;101053.88;;;4.63;59.75
59419;BME280;45224;50.904;6.038;2023-02-27T08:59:29;101046.59;;;4.52;58.00
59419;BME280;45224;50.904;6.038;2023-02-27T09:01:01;101039.25;;;5.20;57.43
59419;BME280;45224;50.904;6.038;2023-02-27T09:02:31;101061.66;;;5.66;54.22
59419;BME280;45224;50.904;6.038;2023-02-27T09:04:03;101062.28;;;5.82;55.52
59419;BME280;45224;50.904;6.038;2023-02-27T09:05:33;101056.50;;;5.88;53.86